createdAt,value
2018-09-30T00:00:12.204Z,7.43
2018-09-30T00:02:39.185Z,7.39
2018-09-30T00:05:06.150Z,7.35
2018-09-30T00:07:33.094Z,7.32
2018-09-30T00:10:00.037Z,7.33
2018-09-30T00:12:27.008Z,7.31
2018-09-30T00:14:53.971Z,7.31
2018-09-30T00:17:20.930Z,7.28
2018-09-30T00:19:47.875Z,7.20
2018-09-30T00:22:14.843Z,7.17
2018-09-30T00:24:47.507Z,7.19
2018-09-30T00:27:17.463Z,7.14
2018-09-30T00:29:44.410Z,7.17
2018-09-30T00:32:11.365Z,7.13
2018-09-30T00:34:38.324Z,7.11
2018-09-30T00:37:05.328Z,7.11
2018-09-30T00:39:32.269Z,7.09
2018-09-30T00:41:59.248Z,7.12
2018-09-30T00:44:26.192Z,7.14
2018-09-30T00:46:53.597Z,7.11
2018-09-30T00:49:20.559Z,7.08
2018-09-30T00:51:47.514Z,7.07
2018-09-30T00:54:14.837Z,7.03
2018-09-30T00:56:42.109Z,7.01
2018-09-30T00:59:09.462Z,7.00
2018-09-30T01:01:36.409Z,6.97
2018-09-30T01:04:03.424Z,6.94
2018-09-30T01:06:30.384Z,6.91
2018-09-30T01:08:57.350Z,6.88
2018-09-30T01:11:24.323Z,6.88
2018-09-30T01:13:51.297Z,6.87
2018-09-30T01:16:18.485Z,6.86
2018-09-30T01:18:45.445Z,6.85
2018-09-30T01:21:12.397Z,6.55
2018-09-30T01:23:39.353Z,6.86
2018-09-30T01:26:06.301Z,6.86
2018-09-30T01:28:33.525Z,6.88
2018-09-30T01:31:01.307Z,6.89
2018-09-30T01:33:28.613Z,6.90
2018-09-30T01:38:29.298Z,6.89
2018-09-30T01:40:56.337Z,6.91
2018-09-30T01:43:23.304Z,6.91
2018-09-30T01:45:50.257Z,6.92
2018-09-30T01:48:17.271Z,6.93
2018-09-30T01:50:44.261Z,6.96
2018-09-30T01:53:11.226Z,6.96
2018-09-30T01:55:38.184Z,6.95
2018-09-30T01:58:05.178Z,6.96
2018-09-30T02:00:32.130Z,6.99
2018-09-30T02:02:59.073Z,6.99
2018-09-30T02:05:26.014Z,7.01
2018-09-30T02:07:52.974Z,7.05
2018-09-30T02:10:19.935Z,7.06
2018-09-30T02:12:46.889Z,7.06
2018-09-30T02:15:13.842Z,7.06
2018-09-30T02:17:40.833Z,7.04
2018-09-30T02:20:07.812Z,7.03
2018-09-30T02:22:34.761Z,7.03
2018-09-30T02:25:01.714Z,7.05
2018-09-30T02:27:28.666Z,7.08
2018-09-30T02:29:55.628Z,7.08
2018-09-30T02:32:23.065Z,7.10
2018-09-30T02:34:50.138Z,7.13
2018-09-30T02:37:17.042Z,7.15
2018-09-30T02:39:44.061Z,7.17
2018-09-30T02:42:11.669Z,7.18
2018-09-30T02:44:38.638Z,7.20
2018-09-30T02:47:05.646Z,7.20
2018-09-30T02:49:32.629Z,7.23
2018-09-30T02:51:59.604Z,7.22
2018-09-30T02:54:26.564Z,7.20
2018-09-30T02:56:53.497Z,7.21
2018-09-30T02:59:20.563Z,7.21
2018-09-30T03:01:47.525Z,7.21
2018-09-30T03:04:14.505Z,7.20
2018-09-30T03:06:47.293Z,7.20
2018-09-30T03:09:16.717Z,7.16
2018-09-30T03:11:43.681Z,7.13
2018-09-30T03:14:11.912Z,7.10
2018-09-30T03:16:39.154Z,7.10
2018-09-30T03:19:06.150Z,7.07
2018-09-30T03:21:33.117Z,7.10
2018-09-30T03:24:00.061Z,7.08
2018-09-30T03:29:00.793Z,7.10
2018-09-30T03:31:27.752Z,7.12
2018-09-30T03:33:54.742Z,7.14
2018-09-30T03:36:21.709Z,7.15
2018-09-30T03:38:48.678Z,7.15
2018-09-30T03:41:15.651Z,7.14
2018-09-30T03:43:42.626Z,7.15
2018-09-30T03:46:09.615Z,7.13
2018-09-30T03:48:36.580Z,7.12
2018-09-30T03:51:03.589Z,7.10
2018-09-30T03:53:30.575Z,7.08
2018-09-30T03:55:57.662Z,7.09
2018-09-30T03:58:24.642Z,7.06
2018-09-30T04:00:51.646Z,7.04
2018-09-30T04:03:18.842Z,7.03
2018-09-30T04:05:45.989Z,7.02
2018-09-30T04:08:12.950Z,7.02
2018-09-30T04:10:39.932Z,7.00
2018-09-30T04:13:06.906Z,7.01
2018-09-30T04:15:33.910Z,7.03
2018-09-30T04:18:00.866Z,7.05
2018-09-30T04:20:27.864Z,7.05
2018-09-30T04:22:54.850Z,7.06
2018-09-30T04:25:21.876Z,7.08
2018-09-30T04:27:48.869Z,7.09
2018-09-30T04:30:15.860Z,7.11
2018-09-30T04:32:42.872Z,7.12
2018-09-30T04:35:09.861Z,7.16
2018-09-30T04:37:36.840Z,7.19
2018-09-30T04:40:03.808Z,7.20
2018-09-30T04:42:30.761Z,7.24
2018-09-30T04:44:57.726Z,7.25
2018-09-30T04:47:24.660Z,7.25
2018-09-30T04:49:51.680Z,7.28
2018-09-30T04:52:18.585Z,7.28
2018-09-30T04:54:45.548Z,7.29
2018-09-30T04:57:12.565Z,7.28
2018-09-30T04:59:39.515Z,7.28
2018-09-30T05:02:06.509Z,7.27
2018-09-30T05:04:33.496Z,7.26
2018-09-30T05:07:00.489Z,7.24
2018-09-30T05:09:27.449Z,7.30
2018-09-30T05:11:54.430Z,7.32
2018-09-30T05:14:21.390Z,7.31
2018-09-30T05:16:48.509Z,7.30
2018-09-30T05:19:15.505Z,7.33
2018-09-30T05:21:42.460Z,7.32
2018-09-30T05:24:09.411Z,7.36
2018-09-30T05:26:36.374Z,7.34
2018-09-30T05:29:03.345Z,7.33
2018-09-30T05:31:30.325Z,7.34
2018-09-30T05:33:57.293Z,7.35
2018-09-30T05:36:24.256Z,7.35
2018-09-30T05:38:51.252Z,7.36
2018-09-30T05:41:18.230Z,7.39
2018-09-30T05:43:45.168Z,7.41
2018-09-30T05:46:12.139Z,7.42
2018-09-30T05:48:39.110Z,7.45
2018-09-30T05:51:06.093Z,7.45
2018-09-30T05:53:33.067Z,7.49
2018-09-30T05:56:00.042Z,7.49
2018-09-30T05:58:27.012Z,7.48
2018-09-30T06:00:53.981Z,7.49
2018-09-30T06:03:20.938Z,7.50
2018-09-30T06:05:47.967Z,7.51
2018-09-30T06:08:14.931Z,7.53
2018-09-30T06:10:41.914Z,7.55
2018-09-30T06:13:08.879Z,7.54
2018-09-30T06:15:35.840Z,7.53
2018-09-30T06:18:02.807Z,7.51
2018-09-30T06:20:29.777Z,7.53
2018-09-30T06:22:56.753Z,7.54
2018-09-30T06:25:23.754Z,7.55
2018-09-30T06:27:50.735Z,7.55
2018-09-30T06:30:17.694Z,7.57
2018-09-30T06:32:44.666Z,7.60
2018-09-30T06:35:11.648Z,7.63
2018-09-30T06:37:38.612Z,7.64
2018-09-30T06:40:05.623Z,7.69
2018-09-30T06:42:32.580Z,7.69
2018-09-30T06:44:59.534Z,7.73
2018-09-30T06:47:26.493Z,7.79
2018-09-30T06:49:53.455Z,7.83
2018-09-30T06:52:20.413Z,7.89
2018-09-30T06:54:47.366Z,7.94
2018-09-30T06:57:14.316Z,7.98
2018-09-30T06:59:41.286Z,8.01
2018-09-30T07:02:08.256Z,8.04
2018-09-30T07:04:35.217Z,8.10
2018-09-30T07:07:02.190Z,8.18
2018-09-30T07:09:29.133Z,8.26
2018-09-30T07:11:56.080Z,8.35
2018-09-30T07:14:23.073Z,8.45
2018-09-30T07:16:50.052Z,8.55
2018-09-30T07:19:17.018Z,8.66
2018-09-30T07:21:43.990Z,8.77
2018-09-30T07:24:10.958Z,8.86
2018-09-30T07:26:37.914Z,8.92
2018-09-30T07:29:04.881Z,8.95
2018-09-30T07:31:31.939Z,9.06
2018-09-30T07:33:58.933Z,9.06
2018-09-30T07:36:25.905Z,9.20
2018-09-30T07:38:52.872Z,9.32
2018-09-30T07:41:19.840Z,9.56
2018-09-30T07:43:46.783Z,9.88
2018-09-30T07:46:13.785Z,10.01
2018-09-30T07:48:40.737Z,10.26
2018-09-30T07:51:07.733Z,10.27
2018-09-30T07:53:34.714Z,10.23
2018-09-30T07:56:01.695Z,10.25
2018-09-30T07:58:28.690Z,10.34
2018-09-30T08:00:55.718Z,10.39
2018-09-30T08:03:22.702Z,10.35
2018-09-30T08:05:49.685Z,10.48
2018-09-30T08:08:16.726Z,10.52
2018-09-30T08:10:43.705Z,10.56
2018-09-30T08:13:10.687Z,10.63
2018-09-30T08:15:37.642Z,10.76
2018-09-30T08:18:04.729Z,10.84
2018-09-30T08:20:31.700Z,11.01
2018-09-30T08:22:58.714Z,11.12
2018-09-30T08:25:25.738Z,11.16
2018-09-30T08:27:52.784Z,11.23
2018-09-30T08:30:19.738Z,11.29
2018-09-30T08:32:46.709Z,11.45
2018-09-30T08:35:13.713Z,12.03
2018-09-30T08:37:46.365Z,12.41
2018-09-30T08:40:17.582Z,12.87
2018-09-30T08:42:44.568Z,13.11
2018-09-30T08:45:11.535Z,13.01
2018-09-30T08:47:38.544Z,12.89
2018-09-30T08:50:05.548Z,12.99
2018-09-30T08:52:32.524Z,13.45
2018-09-30T08:54:59.485Z,13.38
2018-09-30T08:57:26.457Z,13.05
2018-09-30T08:59:53.409Z,12.79
2018-09-30T09:02:20.388Z,12.80
2018-09-30T09:04:47.408Z,12.85
2018-09-30T09:07:14.399Z,13.18
2018-09-30T09:09:41.389Z,13.19
2018-09-30T09:12:08.322Z,12.98
2018-09-30T09:14:35.288Z,12.96
2018-09-30T09:17:02.274Z,12.95
2018-09-30T09:19:29.285Z,12.94
2018-09-30T09:21:56.250Z,13.08
2018-09-30T09:24:23.217Z,13.09
2018-09-30T09:26:50.172Z,13.08
2018-09-30T09:29:17.137Z,12.96
2018-09-30T09:31:44.171Z,12.90
2018-09-30T09:34:11.123Z,12.97
2018-09-30T09:36:38.061Z,13.03
2018-09-30T09:39:07.899Z,13.21
2018-09-30T09:41:35.231Z,13.29
2018-09-30T09:44:02.260Z,13.44
2018-09-30T09:46:29.230Z,13.51
2018-09-30T09:48:56.183Z,13.59
2018-09-30T09:51:23.113Z,13.83
2018-09-30T09:53:50.062Z,14.23
2018-09-30T09:56:17.006Z,14.16
2018-09-30T09:58:43.991Z,13.94
2018-09-30T10:01:10.969Z,14.43
2018-09-30T10:03:37.967Z,14.66
2018-09-30T10:06:04.933Z,14.66
2018-09-30T10:08:31.922Z,14.71
2018-09-30T10:10:58.928Z,14.70
2018-09-30T10:13:25.879Z,14.70
2018-09-30T10:15:52.837Z,14.96
2018-09-30T10:18:19.809Z,15.01
2018-09-30T10:20:46.745Z,15.14
2018-09-30T10:23:13.709Z,15.52
2018-09-30T10:25:40.645Z,15.37
2018-09-30T10:28:07.613Z,15.28
2018-09-30T10:30:34.593Z,15.31
2018-09-30T10:33:01.546Z,15.62
2018-09-30T10:35:28.501Z,15.69
2018-09-30T10:37:55.448Z,15.65
2018-09-30T10:40:22.410Z,15.77
2018-09-30T10:42:49.366Z,15.72
2018-09-30T10:45:16.329Z,15.79
2018-09-30T10:47:43.334Z,15.85
2018-09-30T10:50:10.292Z,15.92
2018-09-30T10:52:37.229Z,15.92
2018-09-30T10:55:04.548Z,15.73
2018-09-30T10:57:31.498Z,15.49
2018-09-30T10:59:58.461Z,15.56
2018-09-30T11:02:25.561Z,15.73
2018-09-30T11:04:52.523Z,15.99
2018-09-30T11:07:19.490Z,15.99
2018-09-30T11:09:46.551Z,16.03
2018-09-30T11:12:13.468Z,16.15
2018-09-30T11:14:40.429Z,16.44
2018-09-30T11:17:07.393Z,16.58
2018-09-30T11:19:34.373Z,16.29
2018-09-30T11:22:01.353Z,16.04
2018-09-30T11:24:28.311Z,16.01
2018-09-30T11:26:55.441Z,15.85
2018-09-30T11:29:22.410Z,15.87
2018-09-30T11:31:49.411Z,15.76
2018-09-30T11:34:16.381Z,15.99
2018-09-30T11:36:43.344Z,16.16
2018-09-30T11:39:11.345Z,16.14
2018-09-30T11:41:38.381Z,16.37
2018-09-30T11:44:05.362Z,16.56
2018-09-30T11:46:33.380Z,16.68
2018-09-30T11:49:00.353Z,16.84
2018-09-30T11:51:27.538Z,16.93
2018-09-30T11:53:54.486Z,17.09
2018-09-30T11:56:21.575Z,17.21
2018-09-30T11:58:48.784Z,17.08
2018-09-30T12:01:15.858Z,16.82
2018-09-30T12:03:42.927Z,16.90
2018-09-30T12:06:09.992Z,16.96
2018-09-30T12:08:37.056Z,17.18
2018-09-30T12:11:04.641Z,17.05
2018-09-30T12:13:31.893Z,16.72
2018-09-30T12:15:59.311Z,16.39
2018-09-30T12:18:26.560Z,16.72
2018-09-30T12:20:53.660Z,16.81
2018-09-30T12:23:20.839Z,17.11
2018-09-30T12:25:48.308Z,17.38
2018-09-30T12:28:16.155Z,17.19
2018-09-30T12:30:44.154Z,17.13
2018-09-30T12:33:11.788Z,16.76
2018-09-30T12:35:38.765Z,16.49
2018-09-30T12:38:05.718Z,16.21
2018-09-30T12:40:32.684Z,15.87
2018-09-30T12:42:59.636Z,15.85
2018-09-30T12:45:26.606Z,15.88
2018-09-30T12:47:53.565Z,15.89
2018-09-30T12:50:20.545Z,16.07
2018-09-30T12:52:47.541Z,16.14
2018-09-30T12:55:14.500Z,16.32
2018-09-30T12:57:41.493Z,16.19
2018-09-30T13:00:09.248Z,16.00
2018-09-30T13:02:36.288Z,15.99
2018-09-30T13:05:03.314Z,16.26
2018-09-30T13:07:30.550Z,16.46
2018-09-30T13:09:57.566Z,16.32
2018-09-30T13:12:24.620Z,16.30
2018-09-30T13:14:51.761Z,16.46
2018-09-30T13:17:18.947Z,16.20
2018-09-30T13:19:46.052Z,16.19
2018-09-30T13:22:13.283Z,16.14
2018-09-30T13:24:40.285Z,16.06
2018-09-30T13:27:07.573Z,16.03
2018-09-30T13:29:34.681Z,15.87
2018-09-30T13:32:01.788Z,15.73
2018-09-30T13:34:28.781Z,15.80
2018-09-30T13:36:55.937Z,15.78
2018-09-30T13:39:23.055Z,15.93
2018-09-30T13:41:50.149Z,15.95
2018-09-30T13:44:17.187Z,16.04
2018-09-30T13:46:44.166Z,16.15
2018-09-30T13:49:11.265Z,16.21
2018-09-30T13:51:38.269Z,16.17
2018-09-30T13:54:05.577Z,16.09
2018-09-30T13:56:39.495Z,15.85
2018-09-30T13:59:06.539Z,15.66
2018-09-30T14:01:33.453Z,15.61
2018-09-30T14:04:00.451Z,15.80
2018-09-30T14:06:27.503Z,15.78
2018-09-30T14:08:54.548Z,15.69
2018-09-30T14:11:21.569Z,15.78
2018-09-30T14:13:48.556Z,15.86
2018-09-30T14:16:15.569Z,15.76
2018-09-30T14:18:42.508Z,15.67
2018-09-30T14:21:09.461Z,15.61
2018-09-30T14:23:36.778Z,15.53
2018-09-30T14:26:03.890Z,15.44
2018-09-30T14:28:31.084Z,15.49
2018-09-30T14:30:58.140Z,15.52
2018-09-30T14:33:25.270Z,15.45
2018-09-30T14:35:52.359Z,15.34
2018-09-30T14:38:19.478Z,15.34
2018-09-30T14:40:46.517Z,15.37
2018-09-30T14:43:13.623Z,15.46
2018-09-30T14:45:40.558Z,15.37
2018-09-30T14:48:07.655Z,15.24
2018-09-30T14:50:34.770Z,15.10
2018-09-30T14:53:01.896Z,14.99
2018-09-30T14:55:29.042Z,14.98
2018-09-30T14:57:57.098Z,15.03
2018-09-30T15:00:24.189Z,15.09
2018-09-30T15:02:51.331Z,15.00
2018-09-30T15:05:19.576Z,14.93
2018-09-30T15:07:46.754Z,14.92
2018-09-30T15:10:15.088Z,14.86
2018-09-30T15:12:44.540Z,14.81
2018-09-30T15:15:11.630Z,14.72
2018-09-30T15:17:38.813Z,14.63
2018-09-30T15:20:05.777Z,14.45
2018-09-30T15:22:32.867Z,14.32
2018-09-30T15:25:00.223Z,14.36
2018-09-30T15:27:27.284Z,14.33
2018-09-30T15:29:54.347Z,14.26
2018-09-30T15:32:21.397Z,14.27
2018-09-30T15:34:48.433Z,14.15
2018-09-30T15:37:15.472Z,14.17
2018-09-30T15:39:42.476Z,14.13
2018-09-30T15:42:09.488Z,14.05
2018-09-30T15:44:36.440Z,14.07
2018-09-30T15:47:03.405Z,13.95
2018-09-30T15:49:30.349Z,13.97
2018-09-30T15:51:57.400Z,14.00
2018-09-30T15:54:24.341Z,13.99
2018-09-30T15:56:51.393Z,13.95
2018-09-30T15:59:18.346Z,13.93
2018-09-30T16:01:45.314Z,13.89
2018-09-30T16:04:12.261Z,13.81
2018-09-30T16:06:39.217Z,13.82
2018-09-30T16:09:06.880Z,13.81
2018-09-30T16:11:33.832Z,13.79
2018-09-30T16:14:01.613Z,13.73
2018-09-30T16:16:28.548Z,13.68
2018-09-30T16:18:55.509Z,13.60
2018-09-30T16:21:22.497Z,13.53
2018-09-30T16:23:49.684Z,13.52
2018-09-30T16:26:17.989Z,13.46
2018-09-30T16:28:45.433Z,13.41
2018-09-30T16:31:12.404Z,13.37
2018-09-30T16:33:39.381Z,13.30
2018-09-30T16:36:06.370Z,13.27
2018-09-30T16:38:33.326Z,13.24
2018-09-30T16:41:00.296Z,13.22
2018-09-30T16:43:27.278Z,13.21
2018-09-30T16:45:54.232Z,13.13
2018-09-30T16:48:21.182Z,12.81
2018-09-30T16:50:48.142Z,12.99
2018-09-30T16:53:15.102Z,12.91
2018-09-30T16:55:42.084Z,12.82
2018-09-30T16:58:09.045Z,12.73
2018-09-30T17:00:36.105Z,12.69
2018-09-30T17:03:03.057Z,12.64
2018-09-30T17:05:30.009Z,12.57
2018-09-30T17:07:57.009Z,12.49
2018-09-30T17:10:23.966Z,12.38
2018-09-30T17:12:50.908Z,12.33
2018-09-30T17:15:17.850Z,12.32
2018-09-30T17:17:44.794Z,12.24
2018-09-30T17:20:11.729Z,12.14
2018-09-30T17:22:38.672Z,12.07
2018-09-30T17:25:05.687Z,12.05
2018-09-30T17:27:33.427Z,12.01
2018-09-30T17:30:00.392Z,11.99
2018-09-30T17:32:27.333Z,11.96
2018-09-30T17:34:54.293Z,11.98
2018-09-30T17:37:21.265Z,11.99
2018-09-30T17:39:48.191Z,11.96
2018-09-30T17:42:15.128Z,11.95
2018-09-30T17:44:42.070Z,11.91
2018-09-30T17:47:09.007Z,11.89
2018-09-30T17:49:35.949Z,11.89
2018-09-30T17:52:02.907Z,11.86
2018-09-30T17:54:29.838Z,11.84
2018-09-30T17:56:57.611Z,11.84
2018-09-30T17:59:24.889Z,11.85
2018-09-30T18:01:51.811Z,11.82
2018-09-30T18:04:18.769Z,11.89
2018-09-30T18:06:45.710Z,11.92
2018-09-30T18:09:12.661Z,11.95
2018-09-30T18:11:39.598Z,11.99
2018-09-30T18:14:06.592Z,12.00
2018-09-30T18:16:33.573Z,12.03
2018-09-30T18:19:00.530Z,12.04
2018-09-30T18:21:27.509Z,12.06
2018-09-30T18:23:54.467Z,12.06
2018-09-30T18:26:21.425Z,12.06
2018-09-30T18:28:48.768Z,12.06
2018-09-30T18:31:16.466Z,12.05
2018-09-30T18:33:43.442Z,12.06
2018-09-30T18:36:17.531Z,12.02
2018-09-30T18:38:44.661Z,12.04
2018-09-30T18:41:11.625Z,12.03
2018-09-30T18:43:39.063Z,12.04
2018-09-30T18:46:06.130Z,12.04
2018-09-30T18:48:33.134Z,12.04
2018-09-30T18:51:00.167Z,12.06
2018-09-30T18:53:27.692Z,12.03
2018-09-30T18:55:55.404Z,12.05
2018-09-30T18:58:24.547Z,12.03
2018-09-30T19:00:51.536Z,12.04
2018-09-30T19:03:18.507Z,12.05
2018-09-30T19:05:46.680Z,12.05
2018-09-30T19:08:14.335Z,12.04
2018-09-30T19:10:42.110Z,12.03
2018-09-30T19:13:09.064Z,12.02
2018-09-30T19:15:36.677Z,12.02
2018-09-30T19:18:03.983Z,12.01
2018-09-30T19:20:30.942Z,12.00
2018-09-30T19:22:58.053Z,12.01
2018-09-30T19:25:25.628Z,11.99
2018-09-30T19:27:52.779Z,11.97
2018-09-30T19:30:19.738Z,11.98
2018-09-30T19:32:46.836Z,11.98
2018-09-30T19:35:13.827Z,12.00
2018-09-30T19:37:40.749Z,11.99
2018-09-30T19:40:07.709Z,11.97
2018-09-30T19:42:34.648Z,11.99
2018-09-30T19:45:01.638Z,11.99
2018-09-30T19:47:29.080Z,11.92
2018-09-30T19:49:56.035Z,11.88
2018-09-30T19:52:23.003Z,11.94
2018-09-30T19:54:49.972Z,11.97
2018-09-30T19:57:17.030Z,11.93
2018-09-30T19:59:44.078Z,12.01
2018-09-30T20:02:11.073Z,12.03
2018-09-30T20:04:38.626Z,12.04
2018-09-30T20:07:06.242Z,12.09
2018-09-30T20:09:33.342Z,11.97
2018-09-30T20:12:00.266Z,11.96
2018-09-30T20:14:27.383Z,11.89
2018-09-30T20:16:54.793Z,11.87
2018-09-30T20:19:21.778Z,11.86
2018-09-30T20:21:48.991Z,11.84
2018-09-30T20:24:15.954Z,11.88
2018-09-30T20:26:43.138Z,11.79
2018-09-30T20:29:10.165Z,11.77
2018-09-30T20:31:44.075Z,11.73
2018-09-30T20:34:11.022Z,11.71
2018-09-30T20:36:37.975Z,11.66
2018-09-30T20:39:05.815Z,11.66
2018-09-30T20:41:33.875Z,11.61
2018-09-30T20:44:00.961Z,11.53
2018-09-30T20:46:27.992Z,11.42
2018-09-30T20:48:54.954Z,11.40
2018-09-30T20:51:21.955Z,11.35
2018-09-30T20:53:48.901Z,11.27
2018-09-30T20:56:15.871Z,11.22
2018-09-30T20:58:43.035Z,11.19
2018-09-30T21:01:10.024Z,11.18
2018-09-30T21:03:37.227Z,11.15
2018-09-30T21:06:19.192Z,11.09
2018-09-30T21:08:46.125Z,11.07
2018-09-30T21:11:13.100Z,11.03
2018-09-30T21:13:41.705Z,11.01
2018-09-30T21:16:08.764Z,11.03
2018-09-30T21:18:35.724Z,11.09
2018-09-30T21:21:02.655Z,11.09
2018-09-30T21:23:29.594Z,11.08
2018-09-30T21:25:56.763Z,11.01
2018-09-30T21:28:23.955Z,10.86
2018-09-30T21:30:51.484Z,10.97
2018-09-30T21:33:18.436Z,10.90
2018-09-30T21:35:45.869Z,10.89
2018-09-30T21:38:12.813Z,10.95
2018-09-30T21:40:39.790Z,10.92
2018-09-30T21:43:06.738Z,10.89
2018-09-30T21:45:33.696Z,10.88
2018-09-30T21:48:00.669Z,10.84
2018-09-30T21:50:27.629Z,10.84
2018-09-30T21:52:54.593Z,10.98
2018-09-30T21:55:21.561Z,11.01
2018-09-30T21:57:48.562Z,10.98
2018-09-30T22:00:20.225Z,10.99
2018-09-30T22:02:47.286Z,11.01
2018-09-30T22:05:14.253Z,11.03
2018-09-30T22:07:41.223Z,11.03
2018-09-30T22:10:08.197Z,11.03
2018-09-30T22:12:35.182Z,11.04
2018-09-30T22:15:02.149Z,10.99
2018-09-30T22:17:29.120Z,10.93
2018-09-30T22:19:56.099Z,10.90
2018-09-30T22:22:23.063Z,10.83
2018-09-30T22:24:50.105Z,10.90
2018-09-30T22:27:17.089Z,10.84
2018-09-30T22:29:44.060Z,10.86
2018-09-30T22:32:11.041Z,10.89
2018-09-30T22:34:38.033Z,10.88
2018-09-30T22:37:04.990Z,10.92
2018-09-30T22:39:31.961Z,10.92
2018-09-30T22:41:58.924Z,10.74
2018-09-30T22:44:32.753Z,10.74
2018-09-30T22:46:59.714Z,10.71
2018-09-30T22:49:26.673Z,10.66
2018-09-30T22:51:54.466Z,10.69
2018-09-30T22:54:21.425Z,10.70
2018-09-30T22:56:48.411Z,10.73
2018-09-30T22:59:15.360Z,10.74
2018-09-30T23:01:42.311Z,10.69
2018-09-30T23:04:09.248Z,10.63
2018-09-30T23:06:36.230Z,10.56
2018-09-30T23:09:04.642Z,10.53
2018-09-30T23:11:31.593Z,10.53
2018-09-30T23:13:58.538Z,10.57
2018-09-30T23:16:25.473Z,10.62
2018-09-30T23:18:52.436Z,10.60
2018-09-30T23:21:19.394Z,10.55
2018-09-30T23:23:46.346Z,10.53
2018-09-30T23:26:13.296Z,10.49
2018-09-30T23:28:40.256Z,10.46
2018-09-30T23:31:07.206Z,10.49
2018-09-30T23:33:34.183Z,10.47
2018-09-30T23:36:01.176Z,10.46
2018-09-30T23:38:28.141Z,10.43
2018-09-30T23:40:55.097Z,10.45
2018-09-30T23:43:22.065Z,10.48
2018-09-30T23:45:49.005Z,10.54
2018-09-30T23:48:15.970Z,10.55
2018-09-30T23:50:42.932Z,10.54
2018-09-30T23:53:09.893Z,10.52
2018-09-30T23:55:36.845Z,10.49
2018-09-30T23:58:10.292Z,10.46
